Time;durP1;ratioP1;P1;durP2;ratioP2;P2;SDS_P1;SDS_P2;PMS_P1;PMS_P2;Temp;Humidity;BMP_temperature;BMP_pressure;BME280_temperature;BME280_humidity;BME280_pressure;Samples;Min_cycle;Max_cycle;Signal;HPM_P1;HPM_P2
2022/09/26 00:04:23;;;;;;;4.45;2.55;;;;;;;9.36;70.68;99793.91;10299589;28;20254;-77
2022/09/26 00:09:33;;;;;;;8.45;2.85;;;;;;;9.22;71.30;99785.19;10298514;28;20577;-79
2022/09/26 00:14:37;;;;;;;5.88;2.75;;;;;;;9.37;70.80;99782.19;10299296;28;20078;-78
2022/09/26 00:19:41;;;;;;;5.15;2.80;;;;;;;9.32;70.70;99771.84;10319744;28;20054;-76
2022/09/26 00:24:44;;;;;;;3.60;2.45;;;;;;;9.43;70.45;99763.72;10332733;28;20047;-77
2022/09/26 00:29:47;;;;;;;5.28;2.17;;;;;;;9.33;70.30;99762.84;10305211;28;20051;-79
2022/09/26 00:34:52;;;;;;;8.80;3.60;;;;;;;9.47;70.06;99743.72;10299119;28;20165;-78
2022/09/26 00:39:55;;;;;;;6.30;2.75;;;;;;;9.46;70.13;99727.75;10298420;28;20137;-78
2022/09/26 00:45:00;;;;;;;4.93;2.85;;;;;;;9.43;70.23;99722.66;10297437;28;20074;-78
2022/09/26 00:50:09;;;;;;;3.58;2.85;;;;;;;9.47;70.32;99716.91;10294612;28;20077;-78
2022/09/26 00:55:14;;;;;;;5.05;3.30;;;;;;;9.44;70.35;99697.59;10291214;28;20039;-78
2022/09/26 01:00:17;;;;;;;4.80;3.45;;;;;;;9.45;70.61;99692.06;10302279;28;20081;-78
2022/09/26 01:05:24;;;;;;;10.50;4.00;;;;;;;9.38;70.77;99693.59;10293068;28;20136;-77
2022/09/26 01:10:28;;;;;;;5.28;3.33;;;;;;;9.21;71.82;99689.69;10292251;28;20546;-77
2022/09/26 01:15:33;;;;;;;5.63;3.00;;;;;;;9.21;72.29;99678.97;10288280;28;20121;-78
2022/09/26 01:20:49;;;;;;;4.90;3.15;;;;;;;9.22;72.20;99672.66;10291411;28;20512;-78
2022/09/26 01:26:22;;;;;;;5.43;3.15;;;;;;;9.24;72.69;99664.44;10291008;28;20129;-77
2022/09/26 01:31:37;;;;;;;4.13;3.20;;;;;;;9.23;73.00;99649.38;10290679;28;20101;-78
2022/09/26 01:37:02;;;;;;;8.30;3.50;;;;;;;9.33;72.88;99652.94;10289047;28;20074;-78
2022/09/26 01:42:17;;;;;;;7.10;3.60;;;;;;;9.31;73.12;99649.53;10275462;28;20050;-77
2022/09/26 01:47:27;;;;;;;5.90;3.30;;;;;;;9.17;73.60;99641.88;10297672;28;20662;-77
2022/09/26 01:52:36;;;;;;;5.60;4.10;;;;;;;9.22;73.81;99643.16;10298394;28;20074;-78
2022/09/26 01:57:44;;;;;;;11.05;4.82;;;;;;;9.29;74.01;99628.22;10299070;28;20042;-78
2022/09/26 02:02:50;;;;;;;8.93;5.32;;;;;;;9.16;74.34;99632.13;10297624;28;20053;-77
2022/09/26 02:07:57;;;;;;;9.75;6.05;;;;;;;8.95;75.37;99622.28;10296677;28;20042;-78
2022/09/26 02:13:07;;;;;;;7.75;5.25;;;;;;;8.81;75.24;99614.59;10296841;28;20077;-77
2022/09/26 02:18:18;;;;;;;9.98;5.05;;;;;;;8.91;75.32;99607.44;10294972;28;20117;-78
2022/09/26 02:23:22;;;;;;;9.73;4.87;;;;;;;8.98;74.92;99597.06;10280291;28;20055;-78
2022/09/26 02:28:27;;;;;;;7.00;4.85;;;;;;;8.64;75.69;99588.41;10295789;28;20305;-77
2022/09/26 02:33:32;;;;;;;7.63;5.13;;;;;;;8.57;76.01;99583.59;10310032;28;20057;-77
2022/09/26 02:38:36;;;;;;;10.30;5.50;;;;;;;8.80;74.92;99584.31;10296490;28;20049;-77
2022/09/26 02:50:39;;;;;;;8.33;4.60;;;;;;;8.72;74.89;99559.16;10294868;28;20129;-77
2022/09/26 02:55:47;;;;;;;7.93;4.53;;;;;;;8.88;74.62;99556.84;10292181;28;20504;-77
2022/09/26 03:00:59;;;;;;;10.10;4.90;;;;;;;8.96;74.21;99538.25;10295266;28;20074;-78
2022/09/26 03:06:08;;;;;;;6.60;3.97;;;;;;;8.83;74.30;99538.50;10295408;28;20046;-76
2022/09/26 03:11:16;;;;;;;10.05;4.68;;;;;;;8.59;74.81;99530.78;10311244;28;20054;-78
2022/09/26 03:16:20;;;;;;;8.38;4.22;;;;;;;8.77;74.29;99527.47;10285794;28;20047;-78
2022/09/26 03:21:25;;;;;;;7.07;3.88;;;;;;;8.67;74.39;99511.38;10305895;28;20050;-78
2022/09/26 03:26:30;;;;;;;4.40;3.88;;;;;;;8.81;73.92;99500.28;10294339;28;20043;-78
2022/09/26 03:31:35;;;;;;;6.05;3.90;;;;;;;8.95;73.42;99495.56;10307866;28;20050;-78
2022/09/26 03:36:42;;;;;;;10.60;4.38;;;;;;;8.94;73.40;99485.81;10291900;28;20043;-77
2022/09/26 03:41:46;;;;;;;6.88;3.88;;;;;;;8.94;73.40;99473.28;10293892;28;20087;-78
2022/09/26 03:47:03;;;;;;;10.32;4.13;;;;;;;8.90;73.52;99469.19;10296872;28;20055;-78
2022/09/26 03:52:11;;;;;;;5.95;3.75;;;;;;;8.98;73.71;99460.47;10298510;28;20393;-78
2022/09/26 03:57:16;;;;;;;10.07;4.70;;;;;;;9.13;73.09;99450.19;10298067;28;20047;-78
2022/09/26 04:02:27;;;;;;;7.67;3.80;;;;;;;9.03;73.37;99448.34;10298733;28;20059;-78
2022/09/26 04:07:47;;;;;;;8.18;4.53;;;;;;;9.10;73.20;99442.44;10298199;28;20039;-78
2022/09/26 04:12:50;;;;;;;8.95;4.40;;;;;;;9.02;73.32;99425.25;10312079;28;20047;-78
2022/09/26 04:17:54;;;;;;;8.57;4.30;;;;;;;8.90;73.61;99425.47;10297914;28;20098;-78
2022/09/26 04:23:00;;;;;;;7.43;4.20;;;;;;;8.96;73.28;99420.41;10296572;28;20423;-78
2022/09/26 04:28:03;;;;;;;9.07;4.47;;;;;;;8.46;74.90;99420.41;10292429;28;20050;-78
2022/09/26 04:33:06;;;;;;;11.45;4.45;;;;;;;8.82;73.91;99396.72;10291925;28;20420;-78
2022/09/26 04:38:25;;;;;;;12.25;5.43;;;;;;;8.79;73.96;99387.13;10291215;28;20055;-78
2022/09/26 04:43:28;;;;;;;11.32;4.53;;;;;;;8.79;73.61;99378.25;10291763;28;20059;-77
2022/09/26 04:48:31;;;;;;;8.70;4.82;;;;;;;8.90;73.81;99371.91;10290744;28;20163;-77
2022/09/26 04:53:41;;;;;;;8.57;4.55;;;;;;;8.67;74.16;99358.78;10288810;28;20050;-77
2022/09/26 04:58:50;;;;;;;6.70;4.47;;;;;;;9.06;73.22;99348.97;10291188;28;20054;-78
2022/09/26 05:03:56;;;;;;;11.93;4.60;;;;;;;8.52;75.22;99347.59;10292983;28;20050;-77
2022/09/26 05:09:03;;;;;;;8.63;4.70;;;;;;;8.86;74.17;99341.91;10290628;28;20047;-77
2022/09/26 05:14:25;;;;;;;6.88;3.88;;;;;;;9.02;73.42;99333.28;10289520;28;20058;-77
2022/09/26 05:19:28;;;;;;;10.40;4.63;;;;;;;9.03;73.40;99335.84;10290453;28;20138;-77
2022/09/26 05:30:14;;;;;;;7.45;4.38;;;;;;;9.04;73.24;99324.13;10293513;28;20059;-78
2022/09/26 05:35:17;;;;;;;9.80;5.80;;;;;;;8.98;74.04;99315.81;10294630;28;20047;-78
2022/09/26 05:45:49;;;;;;;12.30;5.27;;;;;;;9.19;73.35;99305.81;10298783;23;20055;-78
2022/09/26 05:51:04;;;;;;;11.85;6.20;;;;;;;9.01;74.08;99321.75;10274387;28;20062;-78
2022/09/26 05:56:10;;;;;;;7.63;5.97;;;;;;;9.26;73.63;99300.72;10228128;29;20493;-78
2022/09/26 06:01:38;;;;;;;14.95;6.63;;;;;;;9.17;74.18;99307.78;10239379;29;20051;-77
2022/09/26 06:06:53;;;;;;;11.43;7.25;;;;;;;9.66;72.61;99302.38;10245304;29;20058;-78
2022/09/26 06:11:57;;;;;;;;;;;;;;;9.61;72.99;99294.75;10233423;29;20051;-78
2022/09/26 06:17:00;;;;;;;10.02;6.65;;;;;;;9.38;73.50;99298.75;10246117;28;19930;-78
2022/09/26 06:22:04;;;;;;;9.70;6.68;;;;;;;9.40;74.26;99288.72;10235532;29;20043;-79
2022/09/26 06:27:07;;;;;;;;;;;;;;;9.43;74.04;99285.75;10249481;28;20031;-78
2022/09/26 06:32:10;;;;;;;10.63;7.30;;;;;;;9.78;73.30;99271.69;10244467;29;19973;-77
2022/09/26 06:37:32;;;;;;;14.50;7.75;;;;;;;9.79;73.05;99259.13;10250434;29;20481;-78
2022/09/26 06:42:36;;;;;;;11.70;7.85;;;;;;;9.79;73.07;99256.44;10245454;28;20044;-78
2022/09/26 06:48:01;;;;;;;15.05;8.40;;;;;;;10.09;71.76;99245.50;10260095;29;20091;-78
2022/09/26 06:53:07;;;;;;;19.08;9.18;;;;;;;9.68;73.65;99244.94;10264351;28;20513;-78
2022/09/26 06:58:13;;;;;;;12.10;8.80;;;;;;;10.12;72.28;99226.41;10251920;28;20115;-78
2022/09/26 07:03:29;;;;;;;17.40;10.18;;;;;;;10.20;71.95;99232.84;10249755;28;20063;-78
2022/09/26 07:08:40;;;;;;;12.30;8.68;;;;;;;10.26;71.68;99227.75;10242167;29;20082;-77
2022/09/26 07:14:18;;;;;;;12.88;8.60;;;;;;;10.18;71.80;99219.59;10265542;28;20567;-77
2022/09/26 07:19:27;;;;;;;12.90;8.48;;;;;;;10.81;69.98;99218.75;10262586;29;20128;-78
2022/09/26 07:24:38;;;;;;;11.77;8.55;;;;;;;10.56;70.58;99210.44;10237805;29;20063;-77
2022/09/26 07:29:46;;;;;;;14.07;9.27;;;;;;;10.59;70.40;99204.78;10243919;28;20062;-77
2022/09/26 07:34:50;;;;;;;15.63;8.13;;;;;;;10.69;69.54;99199.31;10253661;28;20051;-78
2022/09/26 07:39:53;;;;;;;11.95;8.50;;;;;;;10.72;70.35;99192.78;10247733;28;20154;-78
2022/09/26 07:45:06;;;;;;;13.27;6.20;;;;;;;10.87;68.27;99196.63;10255107;28;20059;-78
2022/09/26 07:50:30;;;;;;;11.18;7.55;;;;;;;10.93;68.37;99179.88;10263181;29;20045;-79
2022/09/26 07:56:04;;;;;;;11.15;6.28;;;;;;;11.26;66.51;99170.22;10253455;28;20130;-79
2022/09/26 08:01:22;;;;;;;13.27;7.07;;;;;;;11.52;65.31;99164.00;10262008;28;20051;-79
2022/09/26 08:06:58;;;;;;;10.73;4.85;;;;;;;11.38;65.34;99172.66;10232764;29;20534;-79
2022/09/26 08:12:02;;;;;;;10.50;4.85;;;;;;;11.53;65.04;99156.78;10241689;28;20110;-78
2022/09/26 08:17:31;;;;;;;7.75;6.20;;;;;;;11.55;64.78;99152.09;10213398;29;20066;-78
2022/09/26 08:22:34;;;;;;;9.02;5.53;;;;;;;12.12;63.89;99147.78;10244562;28;20044;-78
2022/09/26 08:27:37;;;;;;;10.23;4.18;;;;;;;11.84;63.19;99147.16;10237349;29;20126;-79
2022/09/26 08:32:43;;;;;;;7.60;4.30;;;;;;;12.03;62.84;99145.22;10246214;29;20051;-78
2022/09/26 08:37:46;;;;;;;8.55;4.88;;;;;;;12.07;62.91;99146.59;10258766;29;20572;-78
2022/09/26 08:43:28;;;;;;;6.22;4.22;;;;;;;12.31;62.31;99132.34;10241346;29;20139;-77
2022/09/26 08:49:14;;;;;;;7.93;4.00;;;;;;;12.06;62.85;99144.88;10233317;28;20086;-78
2022/09/26 08:54:19;;;;;;;5.90;3.65;;;;;;;11.76;63.95;99133.69;10238952;28;20039;-78
2022/09/26 08:59:27;;;;;;;7.70;3.67;;;;;;;11.41;64.56;99137.38;10241582;29;20110;-79
2022/09/26 09:04:40;;;;;;;5.63;3.42;;;;;;;11.38;64.15;99140.38;10244770;29;20099;-79
2022/09/26 09:09:44;;;;;;;7.25;4.80;;;;;;;11.73;64.33;99124.09;10245473;28;20047;-81
2022/09/26 09:15:05;;;;;;;6.43;3.42;;;;;;;11.62;63.91;99124.38;10255158;28;20521;-79
2022/09/26 09:20:57;;;;;;;4.80;3.35;;;;;;;11.50;63.97;99107.69;10254685;29;20044;-79
2022/09/26 09:26:21;;;;;;;8.55;3.80;;;;;;;11.55;64.21;99126.03;10254391;29;20051;-79
2022/09/26 09:31:45;;;;;;;7.95;3.35;;;;;;;11.88;63.17;99104.66;10247701;29;20039;-79
2022/09/26 09:37:27;;;;;;;10.80;3.47;;;;;;;11.89;64.42;99101.78;10243607;29;20054;-78
2022/09/26 09:42:51;;;;;;;9.68;3.00;;;;;;;12.22;63.89;99106.38;10253518;28;20058;-78
2022/09/26 09:47:56;;;;;;;3.97;2.42;;;;;;;11.33;65.23;99119.38;10242790;29;20099;-78
2022/09/26 09:53:13;;;;;;;5.25;2.65;;;;;;;11.54;66.43;99097.44;10243543;29;20032;-78
2022/09/26 09:58:39;;;;;;;7.28;3.00;;;;;;;11.94;65.94;99103.97;10281905;29;20099;-77
2022/09/26 10:03:54;;;;;;;4.45;2.72;;;;;;;11.56;66.88;99081.16;10277645;28;20051;-79
2022/09/26 10:09:12;;;;;;;5.30;2.90;;;;;;;11.71;66.91;99066.06;10264433;29;20515;-78
2022/09/26 10:14:56;;;;;;;5.32;2.97;;;;;;;11.39;68.08;99067.66;10261888;28;20067;-79
2022/09/26 10:20:41;;;;;;;4.78;2.80;;;;;;;11.27;69.83;99068.94;10238734;29;20116;-78
2022/09/26 10:25:48;;;;;;;4.20;2.78;;;;;;;10.83;71.61;99067.16;10257380;29;20053;-77
2022/09/26 10:30:55;;;;;;;3.72;2.60;;;;;;;10.89;72.27;99072.88;10251726;29;20420;-78
2022/09/26 10:36:08;;;;;;;6.93;3.42;;;;;;;11.05;72.34;99062.22;10257986;29;20412;-79
2022/09/26 10:41:23;;;;;;;11.88;3.47;;;;;;;11.17;72.93;99058.31;10249163;28;20055;-78
2022/09/26 10:46:29;;;;;;;3.13;2.43;;;;;;;11.31;73.46;99054.19;10266379;29;20075;-78
2022/09/26 10:51:59;;;;;;;4.70;3.30;;;;;;;10.93;74.78;99042.88;10272443;28;20039;-78
2022/09/26 10:57:08;;;;;;;3.15;2.25;;;;;;;10.22;76.98;99065.34;10242542;29;20456;-78
2022/09/26 11:02:20;;;;;;;8.07;3.13;;;;;;;10.55;77.51;99044.97;10241258;29;20052;-78
2022/09/26 11:07:26;;;;;;;;;;;;;;;10.79;76.67;99033.56;10241581;29;20052;-78
2022/09/26 11:12:58;;;;;;;6.38;3.58;;;;;;;10.48;77.63;99041.25;10240277;28;20072;-77
2022/09/26 11:18:02;;;;;;;5.07;3.08;;;;;;;10.28;78.67;99040.56;10234836;29;20055;-77
2022/09/26 11:23:13;;;;;;;5.97;3.30;;;;;;;9.94;80.95;99022.50;10221043;29;20052;-77
2022/09/26 11:28:23;;;;;;;4.53;3.33;;;;;;;9.89;80.07;99019.41;10235769;29;20054;-77
2022/09/26 11:34:04;;;;;;;9.88;3.60;;;;;;;10.19;80.56;98993.19;10231965;28;20066;-76
2022/09/26 11:39:36;;;;;;;7.07;4.03;;;;;;;10.30;80.64;98967.94;10230531;29;20051;-77
2022/09/26 11:44:51;;;;;;;6.65;4.30;;;;;;;10.36;79.97;98962.78;10228348;29;20139;-75
2022/09/26 11:50:07;;;;;;;7.78;4.25;;;;;;;10.18;80.08;98945.91;10230024;29;20079;-75
2022/09/26 11:55:50;;;;;;;7.35;3.75;;;;;;;10.23;77.85;98951.66;10236547;28;20082;-75
2022/09/26 12:01:02;;;;;;;7.32;3.60;;;;;;;9.85;78.19;98936.75;10236187;29;20051;-75
2022/09/26 12:06:19;;;;;;;5.57;3.55;;;;;;;9.81;79.55;98920.09;10229031;29;20386;-75
2022/09/26 12:11:27;;;;;;;7.22;4.70;;;;;;;10.08;79.64;98918.31;10233784;28;20043;-77
2022/09/26 12:16:45;;;;;;;10.35;4.00;;;;;;;10.02;79.29;98930.53;10238919;29;20082;-76
2022/09/26 12:27:25;;;;;;;2.78;2.53;;;;;;;9.86;79.93;98920.50;10230088;28;20467;-76
2022/09/26 12:32:45;;;;;;;11.85;4.50;;;;;;;10.44;78.78;98902.09;10224724;29;20122;-76
2022/09/26 12:38:21;;;;;;;6.30;4.07;;;;;;;10.31;79.00;98883.75;10238263;29;20091;-76
2022/09/26 12:43:45;;;;;;;6.28;3.38;;;;;;;10.23;78.45;98884.56;10232384;29;20149;-76
2022/09/26 12:49:06;;;;;;;5.05;4.03;;;;;;;10.30;78.66;98882.06;10224118;29;20122;-76
2022/09/26 12:54:31;;;;;;;8.18;5.28;;;;;;;10.20;79.26;98866.06;10230444;29;20069;-76
2022/09/26 12:59:50;;;;;;;9.90;3.92;;;;;;;10.13;80.16;98852.47;10242697;29;20568;-76
2022/09/26 13:05:17;;;;;;;6.05;3.80;;;;;;;10.07;80.24;98854.94;10237991;29;20050;-76
2022/09/26 13:10:29;;;;;;;6.88;4.13;;;;;;;10.39;80.30;98846.22;10240746;29;20134;-76
2022/09/26 13:15:40;;;;;;;7.63;3.83;;;;;;;10.18;80.38;98819.78;10238489;28;20488;-76
2022/09/26 13:20:50;;;;;;;6.68;3.00;;;;;;;10.20;80.27;98815.09;10242522;29;20094;-76
2022/09/26 13:25:58;;;;;;;8.20;2.83;;;;;;;10.62;79.59;98811.59;10241683;28;20474;-76
2022/09/26 13:31:05;;;;;;;2.20;2.00;;;;;;;10.50;78.18;98810.19;10243091;29;20050;-76
2022/09/26 13:36:10;;;;;;;2.38;1.73;;;;;;;11.08;76.21;98803.97;10226391;29;20039;-76
2022/09/26 13:41:33;;;;;;;2.83;2.08;;;;;;;11.35;75.09;98807.38;10224176;29;20054;-76
2022/09/26 13:46:52;;;;;;;5.10;2.05;;;;;;;12.47;71.24;98786.81;10216069;29;20078;-77
2022/09/26 13:52:13;;;;;;;7.43;2.72;;;;;;;12.04;69.99;98791.66;10237559;28;20043;-77
2022/09/26 13:57:35;;;;;;;5.13;2.30;;;;;;;11.72;71.51;98790.72;10238607;29;20047;-77
2022/09/26 14:02:38;;;;;;;15.55;5.97;;;;;;;11.55;71.93;98767.56;10238658;28;20047;-77
2022/09/26 14:13:19;;;;;;;6.65;3.92;;;;;;;11.74;70.51;98772.56;10240566;28;20074;-77
2022/09/26 14:18:53;;;;;;;4.47;2.50;;;;;;;11.15;71.22;98770.06;10237618;29;20115;-77
2022/09/26 14:24:32;;;;;;;4.03;2.20;;;;;;;11.42;71.31;98754.63;10256852;28;20047;-77
2022/09/26 14:29:43;;;;;;;3.22;1.88;;;;;;;11.10;72.07;98767.00;10244615;29;20039;-77
2022/09/26 14:34:48;;;;;;;2.92;1.52;;;;;;;11.38;72.21;98754.13;10238017;28;20073;-77
2022/09/26 14:40:03;;;;;;;4.05;1.70;;;;;;;11.34;71.79;98751.94;10230619;29;20104;-77
2022/09/26 14:45:17;;;;;;;3.30;1.60;;;;;;;11.13;73.76;98742.53;10238300;29;20551;-76
2022/09/26 14:50:25;;;;;;;6.13;4.85;;;;;;;10.99;74.39;98744.00;10244845;29;20035;-76
2022/09/26 14:55:31;;;;;;;2.60;2.40;;;;;;;10.49;76.35;98728.00;10248088;29;20042;-75
2022/09/26 15:00:39;;;;;;;4.18;2.10;;;;;;;10.56;76.70;98726.34;10243477;29;20548;-76
2022/09/26 15:05:43;;;;;;;3.97;2.78;;;;;;;10.84;76.51;98708.91;10246535;28;20035;-77
2022/09/26 15:10:48;;;;;;;4.90;2.38;;;;;;;10.92;76.91;98696.50;10249336;29;20126;-76
2022/09/26 15:16:06;;;;;;;3.03;2.60;;;;;;;10.96;76.04;98697.84;10246899;28;20122;-76
2022/09/26 15:21:25;;;;;;;5.45;2.50;;;;;;;11.28;75.56;98689.78;10243428;29;20036;-76
2022/09/26 15:26:33;;;;;;;3.55;2.67;;;;;;;10.69;76.04;98685.56;10244051;29;20062;-76
2022/09/26 15:31:38;;;;;;;3.05;1.92;;;;;;;10.72;75.84;98680.69;10253454;28;20111;-76
2022/09/26 15:36:42;;;;;;;5.35;2.67;;;;;;;10.91;75.75;98668.78;10243679;29;20063;-77
2022/09/26 15:47:26;;;;;;;8.32;4.30;;;;;;;10.64;77.24;98664.59;10217526;28;20087;-77
2022/09/26 15:52:32;;;;;;;9.70;4.38;;;;;;;10.17;77.42;98667.84;10265355;28;20074;-76
2022/09/26 15:57:36;;;;;;;4.85;2.95;;;;;;;10.33;77.65;98645.59;10290412;29;20054;-76
2022/09/26 16:02:39;;;;;;;6.53;3.47;;;;;;;10.11;78.21;98644.34;10261412;29;20511;-76
2022/09/26 16:07:48;;;;;;;2.47;2.22;;;;;;;10.44;77.01;98626.47;10248801;29;20453;-76
2022/09/26 16:12:53;;;;;;;6.85;3.45;;;;;;;10.51;76.46;98622.13;10250921;28;20043;-76
2022/09/26 16:17:57;;;;;;;8.05;5.40;;;;;;;10.30;76.81;98621.75;10234894;29;20047;-77
2022/09/26 16:23:02;;;;;;;7.57;6.78;;;;;;;10.65;75.71;98612.56;10224410;29;20119;-76
2022/09/26 16:28:43;;;;;;;4.03;3.05;;;;;;;10.25;75.76;98624.94;10240640;28;20051;-77
2022/09/26 16:33:51;;;;;;;13.32;8.93;;;;;;;10.60;75.69;98615.75;10242477;29;20043;-76
2022/09/26 16:38:57;;;;;;;4.85;4.13;;;;;;;10.31;76.49;98596.59;10247711;29;20123;-76
2022/09/26 16:44:04;;;;;;;4.03;2.25;;;;;;;9.65;78.47;98609.84;10248182;28;20046;-77
2022/09/26 16:49:29;;;;;;;7.38;3.10;;;;;;;10.11;78.37;98582.66;10241932;29;20603;-76
2022/09/26 16:54:32;;;;;;;4.80;3.13;;;;;;;9.84;80.14;98592.63;10246792;28;20069;-76
2022/09/26 16:59:37;;;;;;;4.20;3.13;;;;;;;9.57;81.43;98595.53;10237417;29;20098;-76
2022/09/26 17:04:40;;;;;;;3.25;2.95;;;;;;;9.55;82.00;98578.81;10247466;28;20517;-76
2022/09/26 17:09:43;;;;;;;4.05;2.35;;;;;;;9.41;82.60;98582.94;10246979;29;20039;-76
2022/09/26 17:14:50;;;;;;;4.80;2.97;;;;;;;9.72;81.77;98562.59;10240241;28;20114;-76
2022/09/26 17:19:54;;;;;;;3.42;2.85;;;;;;;9.67;82.35;98574.81;10242545;29;20043;-75
2022/09/26 17:25:01;;;;;;;5.88;2.75;;;;;;;9.44;82.83;98570.03;10231449;28;20502;-76
2022/09/26 17:30:14;;;;;;;3.05;2.67;;;;;;;9.63;82.72;98568.94;10245594;29;20048;-76
2022/09/26 17:35:21;;;;;;;;;;;;;;;9.24;84.15;98574.81;10247407;28;20086;-75
2022/09/26 17:40:26;;;;;;;6.53;2.80;;;;;;;9.40;83.60;98566.00;10247362;29;20629;-76
2022/09/26 17:45:33;;;;;;;7.07;2.92;;;;;;;9.46;83.79;98556.47;10236217;28;20047;-79
2022/09/26 17:50:37;;;;;;;8.55;4.45;;;;;;;9.40;84.69;98559.78;10244392;29;20043;-75
2022/09/26 17:55:40;;;;;;;6.05;2.70;;;;;;;8.91;86.56;98552.34;10244880;29;20044;-75
2022/09/26 18:00:48;;;;;;;4.13;2.88;;;;;;;9.06;86.06;98561.47;10268439;29;20040;-76
2022/09/26 18:05:51;;;;;;;5.03;3.40;;;;;;;9.25;85.67;98538.97;10252291;28;20070;-76
2022/09/26 18:10:56;;;;;;;3.15;2.90;;;;;;;9.08;86.53;98536.38;10249211;29;20067;-77
2022/09/26 18:16:02;;;;;;;3.55;3.22;;;;;;;9.29;86.02;98528.78;10241339;28;20051;-77
2022/09/26 18:21:06;;;;;;;4.57;2.70;;;;;;;9.29;85.23;98523.41;10247701;28;20081;-77
2022/09/26 18:26:15;;;;;;;4.00;2.90;;;;;;;9.05;86.47;98508.94;10245048;29;20055;-76
2022/09/26 18:31:26;;;;;;;6.70;2.63;;;;;;;8.81;86.53;98515.00;10234807;29;20050;-76
2022/09/26 18:36:32;;;;;;;4.47;2.93;;;;;;;9.06;86.44;98507.91;10241926;29;20043;-77
2022/09/26 18:41:35;;;;;;;6.20;3.13;;;;;;;9.12;86.13;98502.91;10246598;28;20043;-76
2022/09/26 18:46:43;;;;;;;5.22;2.90;;;;;;;8.93;87.63;98490.63;10234769;29;20086;-76
2022/09/26 18:51:46;;;;;;;3.33;2.92;;;;;;;9.16;86.58;98504.25;10225103;29;20126;-76
2022/09/26 19:02:20;;;;;;;6.63;3.08;;;;;;;8.86;88.43;98493.09;10197068;28;20047;-76
2022/09/26 19:07:23;;;;;;;6.32;3.42;;;;;;;9.06;87.55;98491.00;10202720;28;20051;-76
2022/09/26 19:12:26;;;;;;;4.55;2.88;;;;;;;9.03;87.65;98484.13;10199325;28;20051;-76
2022/09/26 19:17:31;;;;;;;6.47;3.70;;;;;;;8.81;89.13;98476.69;10186350;28;20047;-76
2022/09/26 19:22:34;;;;;;;12.30;3.50;;;;;;;9.09;87.83;98466.59;10192314;28;20058;-77
2022/09/26 19:27:42;;;;;;;6.57;3.72;;;;;;;9.03;89.43;98469.91;10202061;28;20058;-77
2022/09/26 19:32:49;;;;;;;5.32;3.53;;;;;;;8.94;88.42;98469.03;10215025;28;20097;-76
2022/09/26 19:37:52;;;;;;;5.13;3.25;;;;;;;8.92;88.62;98459.50;10220561;28;20055;-77
2022/09/26 19:42:56;;;;;;;8.20;3.60;;;;;;;9.10;87.94;98449.50;10206058;28;20054;-77
2022/09/26 19:48:01;;;;;;;3.45;3.03;;;;;;;8.98;87.99;98454.31;10204941;28;20048;-76
2022/09/26 19:53:12;;;;;;;8.05;3.67;;;;;;;8.74;88.92;98446.19;10209527;28;20060;-77
2022/09/26 19:58:17;;;;;;;6.70;3.60;;;;;;;8.75;89.58;98440.69;10211432;28;20051;-77
2022/09/26 20:03:29;;;;;;;5.18;3.58;;;;;;;8.90;88.98;98429.34;10208167;28;20047;-77
2022/09/26 20:08:32;;;;;;;5.00;2.95;;;;;;;8.76;89.71;98430.81;10202845;28;20744;-76
2022/09/26 20:14:22;;;;;;;5.22;3.33;;;;;;;8.88;88.95;98418.78;10202510;28;20054;-77
2022/09/26 20:19:03;;;;;;;3.35;2.65;;;;;;;8.45;90.83;98412.56;10204288;28;20050;-76
2022/09/26 20:24:08;;;;;;;5.63;2.60;;;;;;;8.50;91.31;98420.13;10206407;28;21216;-76
2022/09/26 20:29:13;;;;;;;5.57;2.75;;;;;;;8.77;90.08;98409.22;10207226;28;20075;-76
2022/09/26 20:34:17;;;;;;;5.03;3.30;;;;;;;8.70;90.69;98404.69;10199706;28;20605;-76
2022/09/26 20:39:25;;;;;;;5.15;3.05;;;;;;;8.67;90.65;98400.50;10196551;28;20047;-76
2022/09/26 20:44:32;;;;;;;3.28;2.92;;;;;;;8.89;89.21;98392.88;10205296;28;20067;-76
2022/09/26 20:49:42;;;;;;;5.28;3.28;;;;;;;8.79;90.21;98382.28;10204581;28;20051;-75
2022/09/26 20:54:46;;;;;;;3.72;3.13;;;;;;;8.78;89.48;98380.63;10202635;28;20052;-76
2022/09/26 20:59:49;;;;;;;3.63;2.63;;;;;;;8.73;90.42;98370.41;10184129;28;20531;-76
2022/09/26 21:04:54;;;;;;;4.13;2.50;;;;;;;8.75;90.69;98364.88;10191358;29;20052;-76
2022/09/26 21:09:57;;;;;;;4.88;3.58;;;;;;;8.81;90.07;98358.88;10230687;29;20477;-76
2022/09/26 21:15:00;;;;;;;4.28;3.08;;;;;;;8.64;90.96;98363.34;10244115;28;20122;-76
2022/09/26 21:20:05;;;;;;;3.85;3.38;;;;;;;8.76;90.78;98353.19;10236313;29;20126;-76
2022/09/26 21:25:40;;;;;;;4.53;3.47;;;;;;;8.91;89.95;98340.00;10204397;29;20102;-76
2022/09/26 21:30:43;;;;;;;4.65;3.35;;;;;;;8.98;89.41;98335.66;10254460;29;20142;-76
2022/09/26 21:35:48;;;;;;;4.10;2.92;;;;;;;8.97;89.97;98331.34;10260493;29;20059;-76
2022/09/26 21:40:57;;;;;;;3.47;3.10;;;;;;;8.72;90.95;98330.41;10223325;29;20139;-76
2022/09/26 21:46:00;;;;;;;3.58;3.10;;;;;;;8.83;90.68;98330.97;10237634;28;20102;-75
2022/09/26 21:51:06;;;;;;;4.15;3.60;;;;;;;8.93;90.27;98325.44;10235800;29;20043;-74
2022/09/26 21:56:14;;;;;;;5.13;3.60;;;;;;;8.84;90.81;98323.75;10232791;29;20067;-75
2022/09/26 22:01:17;;;;;;;3.22;2.92;;;;;;;8.89;90.82;98320.59;10248758;29;20458;-75
2022/09/26 22:06:21;;;;;;;5.43;3.38;;;;;;;8.84;90.64;98324.59;10229650;29;20141;-75
2022/09/26 22:11:25;;;;;;;3.15;2.88;;;;;;;9.01;89.81;98319.28;10229616;28;20131;-75
2022/09/26 22:16:27;;;;;;;4.60;3.88;;;;;;;9.04;90.12;98309.06;10234604;29;20051;-75
2022/09/26 22:21:32;;;;;;;7.95;3.28;;;;;;;8.99;90.04;98292.66;10232075;29;20040;-75
2022/09/26 22:26:35;;;;;;;6.72;5.03;;;;;;;9.03;90.04;98293.19;10233173;29;20082;-75
2022/09/26 22:31:37;;;;;;;5.13;4.63;;;;;;;8.85;90.82;98298.66;10242228;28;20112;-75
2022/09/26 22:36:42;;;;;;;6.68;5.82;;;;;;;8.60;92.69;98279.84;10243062;29;20093;-75
2022/09/26 22:41:45;;;;;;;7.57;6.93;;;;;;;9.15;90.48;98270.41;10239071;28;20043;-75
2022/09/26 22:46:48;;;;;;;9.73;8.38;;;;;;;9.00;91.35;98275.59;10238105;28;20130;-75
2022/09/26 22:51:52;;;;;;;11.00;8.82;;;;;;;9.07;90.40;98267.72;10222941;29;20413;-75
2022/09/26 22:56:56;;;;;;;11.95;10.45;;;;;;;9.20;90.19;98257.34;10226947;29;20040;-75
2022/09/26 23:01:58;;;;;;;12.80;10.40;;;;;;;9.26;89.89;98248.66;10229847;29;20082;-75
2022/09/26 23:07:03;;;;;;;14.32;11.40;;;;;;;9.14;90.91;98251.84;10227708;29;20390;-75
2022/09/26 23:12:06;;;;;;;17.95;12.38;;;;;;;9.16;90.73;98255.16;10232565;28;20046;-75
2022/09/26 23:17:09;;;;;;;18.10;13.38;;;;;;;9.05;91.36;98238.44;10226582;29;20051;-75
2022/09/26 23:22:14;;;;;;;18.40;13.32;;;;;;;9.31;89.91;98233.94;10225913;29;20051;-76
2022/09/26 23:27:17;;;;;;;16.80;13.68;;;;;;;9.32;89.91;98235.59;10221526;29;20111;-75
2022/09/26 23:32:19;;;;;;;19.77;14.43;;;;;;;9.29;90.14;98223.38;10225611;29;20126;-76
2022/09/26 23:37:24;;;;;;;16.08;12.85;;;;;;;9.26;90.16;98234.41;10233076;29;20095;-75
2022/09/26 23:42:27;;;;;;;19.25;12.68;;;;;;;9.18;90.24;98227.22;10234338;28;20044;-76
2022/09/26 23:47:30;;;;;;;16.67;12.95;;;;;;;9.33;89.80;98214.00;10221627;29;20130;-76
2022/09/26 23:52:34;;;;;;;19.63;12.80;;;;;;;9.40;89.29;98214.97;10220671;29;20048;-76
2022/09/26 23:57:37;;;;;;;19.30;13.63;;;;;;;9.46;89.37;98208.97;10243534;29;20640;-76
